Time;durP1;ratioP1;P1;durP2;ratioP2;P2;SDS_P1;SDS_P2;PMS_P1;PMS_P2;Temp;Humidity;BMP_temperature;BMP_pressure;BME280_temperature;BME280_humidity;BME280_pressure;Samples;Min_cycle;Max_cycle;Signal;HPM_P1;HPM_P2
2022/01/28 00:01:47;;;;;;;;;;;2.60;99.90;;;;;;4939192;28;19926;-69
2022/01/28 00:04:16;;;;;;;;;;;2.50;99.90;;;;;;4936810;28;19926;-68
2022/01/28 00:06:43;;;;;;;;;;;2.60;99.90;;;;;;4932331;28;19930;-66
2022/01/28 00:09:10;;;;;;;;;;;2.50;99.90;;;;;;4940462;28;20042;-74
2022/01/28 00:11:37;;;;;;;;;;;2.50;99.90;;;;;;4937611;28;20030;-69
2022/01/28 00:19:46;;;;;;;;;;;2.50;99.90;;;;;;4938434;28;19936;-69
2022/01/28 00:38:36;;;;;;;;;;;2.40;99.90;;;;;;4938377;28;20616;-65
2022/01/28 00:41:03;;;;;;;;;;;2.40;99.90;;;;;;4936819;28;19937;-69
2022/01/28 00:43:30;;;;;;;;;;;2.40;99.90;;;;;;4939518;28;21025;-70
2022/01/28 00:45:57;;;;;;;;;;;2.40;99.90;;;;;;4937196;28;20001;-67
2022/01/28 00:48:23;;;;;;;;;;;2.40;99.90;;;;;;4940845;28;20044;-70
2022/01/28 00:50:50;;;;;;;;;;;2.40;99.90;;;;;;4935423;28;19930;-71
2022/01/28 00:53:17;;;;;;;;;;;2.40;99.90;;;;;;4939108;28;20029;-68
2022/01/28 00:55:44;;;;;;;;;;;2.40;99.90;;;;;;4937608;28;19989;-65
2022/01/28 00:58:10;;;;;;;;;;;2.40;99.90;;;;;;4940470;28;20005;-68
2022/01/28 01:00:37;;;;;;;;;;;2.40;99.90;;;;;;4939241;28;20020;-68
2022/01/28 01:03:04;;;;;;;;;;;2.50;99.90;;;;;;4937666;28;19931;-68
2022/01/28 01:05:33;;;;;;;;;;;2.50;99.90;;;;;;4940416;28;19930;-66
2022/01/28 01:08:01;;;;;;;;;;;2.50;99.90;;;;;;4938303;28;20620;-68
2022/01/28 01:10:28;;;;;;;;;;;2.50;99.90;;;;;;4937564;28;19993;-66
2022/01/28 01:12:56;;;;;;;;;;;2.50;99.90;;;;;;4936075;28;19938;-67
2022/01/28 01:15:27;;;;;;;;;;;2.50;99.90;;;;;;4939132;28;19985;-68
2022/01/28 01:18:11;;;;;;;;;;;2.50;99.90;;;;;;4938688;28;19969;-69
2022/01/28 01:23:12;;;;;;;;;;;2.50;99.90;;;;;;4936646;28;19930;-66
2022/01/28 01:25:47;;;;;;;;;;;2.50;99.90;;;;;;4937260;28;19926;-72
2022/01/28 01:28:16;;;;;;;;;;;2.50;99.90;;;;;;4938359;28;20460;-71
2022/01/28 01:30:44;;;;;;;;;;;2.50;99.90;;;;;;4937933;28;19933;-69
2022/01/28 01:33:12;;;;;;;;;;;2.50;99.90;;;;;;4938454;28;19933;-69
2022/01/28 01:35:39;;;;;;;;;;;2.50;99.90;;;;;;4935702;28;20649;-65
2022/01/28 01:38:08;;;;;;;;;;;2.50;99.90;;;;;;4938204;28;20311;-67
2022/01/28 01:40:51;;;;;;;;;;;2.40;99.90;;;;;;4937484;28;20037;-69
2022/01/28 01:46:21;;;;;;;;;;;2.40;99.90;;;;;;2949331;28;10002009;-66
2022/01/28 01:54:18;;;;;;;;;;;2.30;99.90;;;;;;4887093;28;19929;-68
2022/01/28 01:56:45;;;;;;;;;;;2.30;99.90;;;;;;4887076;28;19933;-68
2022/01/28 01:59:12;;;;;;;;;;;2.30;99.90;;;;;;4884945;28;21396;-68
2022/01/28 02:01:39;;;;;;;;;;;2.30;99.90;;;;;;4889669;28;21573;-68
2022/01/28 02:04:06;;;;;;;;;;;2.30;99.90;;;;;;4888307;28;21738;-68
2022/01/28 02:06:33;;;;;;;;;;;2.30;99.90;;;;;;4894399;28;19930;-67
2022/01/28 02:09:00;;;;;;;;;;;2.30;99.90;;;;;;4887416;28;19930;-66
2022/01/28 02:11:26;;;;;;;;;;;2.30;99.90;;;;;;4883390;28;20009;-67
2022/01/28 02:13:53;;;;;;;;;;;2.30;99.90;;;;;;4881685;28;19937;-70
2022/01/28 02:16:21;;;;;;;;;;;2.40;99.90;;;;;;4887319;28;19937;-69
2022/01/28 02:18:48;;;;;;;;;;;2.30;99.90;;;;;;4888379;28;19930;-71
2022/01/28 02:21:17;;;;;;;;;;;2.30;99.90;;;;;;4933073;28;19962;-67
2022/01/28 02:23:48;;;;;;;;;;;2.30;99.90;;;;;;4957829;28;20017;-67
2022/01/28 02:26:16;;;;;;;;;;;2.30;99.90;;;;;;4933928;28;19942;-65
2022/01/28 02:28:47;;;;;;;;;;;2.30;99.90;;;;;;4931437;28;20058;-68
2022/01/28 02:31:20;;;;;;;;;;;2.30;99.90;;;;;;4933441;28;20056;-66
2022/01/28 02:33:47;;;;;;;;;;;2.30;99.90;;;;;;4935352;28;19930;-69
2022/01/28 02:36:14;;;;;;;;;;;2.30;99.90;;;;;;4934376;28;19954;-65
2022/01/28 02:38:41;;;;;;;;;;;2.30;99.90;;;;;;4933101;28;20009;-66
2022/01/28 02:41:08;;;;;;;;;;;2.30;99.90;;;;;;4934154;28;19941;-71
2022/01/28 02:43:48;;;;;;;;;;;2.30;99.90;;;;;;4932380;28;20344;-67
2022/01/28 02:46:17;;;;;;;;;;;2.30;99.90;;;;;;4933170;28;19926;-65
2022/01/28 02:48:55;;;;;;;;;;;2.20;99.90;;;;;;4931075;28;19941;-66
2022/01/28 02:51:23;;;;;;;;;;;2.20;99.90;;;;;;4931556;28;21351;-65
2022/01/28 02:56:33;;;;;;;;;;;2.20;99.90;;;;;;4933858;28;19984;-69
2022/01/28 02:59:04;;;;;;;;;;;2.20;99.90;;;;;;4915547;28;19966;-65
2022/01/28 03:01:31;;;;;;;;;;;2.20;99.90;;;;;;4933794;28;21357;-67
2022/01/28 03:04:01;;;;;;;;;;;2.20;99.90;;;;;;4934330;28;19934;-65
2022/01/28 03:06:28;;;;;;;;;;;2.20;99.90;;;;;;4931490;28;19990;-68
2022/01/28 03:09:46;;;;;;;;;;;2.20;99.90;;;;;;4933519;28;19981;-67
2022/01/28 03:12:12;;;;;;;;;;;2.10;99.90;;;;;;4927145;28;19989;-67
2022/01/28 03:22:45;;;;;;;;;;;2.00;99.90;;;;;;4929818;28;20675;-69
2022/01/28 03:25:13;;;;;;;;;;;2.00;99.90;;;;;;4935020;28;19997;-68
2022/01/28 03:30:15;;;;;;;;;;;2.10;99.90;;;;;;4932747;28;19930;-66
2022/01/28 03:32:42;;;;;;;;;;;2.10;99.90;;;;;;4929591;28;20571;-68
2022/01/28 03:35:26;;;;;;;;;;;2.20;99.90;;;;;;4936271;28;19942;-67
2022/01/28 03:37:59;;;;;;;;;;;2.10;99.90;;;;;;4956628;28;20576;-66
2022/01/28 03:40:27;;;;;;;;;;;2.20;99.90;;;;;;4933418;28;19989;-65
2022/01/28 03:42:54;;;;;;;;;;;2.20;99.90;;;;;;4931885;28;20719;-69
2022/01/28 03:45:21;;;;;;;;;;;2.30;99.90;;;;;;4935764;28;20016;-67
2022/01/28 03:47:47;;;;;;;;;;;2.30;99.90;;;;;;4936878;28;19980;-66
2022/01/28 03:50:14;;;;;;;;;;;2.30;99.90;;;;;;4937667;28;20126;-69
2022/01/28 03:52:41;;;;;;;;;;;2.30;99.90;;;;;;4935708;28;20380;-70
2022/01/28 03:55:08;;;;;;;;;;;2.20;99.90;;;;;;4933902;28;20017;-68
2022/01/28 03:57:35;;;;;;;;;;;2.20;99.90;;;;;;4935623;28;19966;-66
2022/01/28 04:00:04;;;;;;;;;;;2.20;99.90;;;;;;4935535;28;19989;-68
2022/01/28 04:02:35;;;;;;;;;;;2.20;99.90;;;;;;4938224;28;19930;-67
2022/01/28 04:06:03;;;;;;;;;;;2.20;99.90;;;;;;4933745;28;19937;-67
2022/01/28 04:13:25;;;;;;;;;;;2.30;99.90;;;;;;4932421;28;19937;-68
2022/01/28 04:18:39;;;;;;;;;;;2.20;99.90;;;;;;4920427;28;19930;-65
2022/01/28 04:21:06;;;;;;;;;;;2.20;99.90;;;;;;4936650;28;19930;-67
2022/01/28 04:23:33;;;;;;;;;;;2.20;99.90;;;;;;4934002;28;19942;-66
2022/01/28 04:25:59;;;;;;;;;;;2.20;99.90;;;;;;4933959;28;19944;-68
2022/01/28 04:28:26;;;;;;;;;;;2.20;99.90;;;;;;4931338;28;20404;-67
2022/01/28 04:30:55;;;;;;;;;;;2.20;99.90;;;;;;4934643;28;19936;-69
2022/01/28 04:33:21;;;;;;;;;;;2.30;99.90;;;;;;4934973;28;19966;-65
2022/01/28 04:35:52;;;;;;;;;;;2.20;99.90;;;;;;4932850;28;19966;-74
2022/01/28 04:43:52;;;;;;;;;;;1.80;99.90;;;;;;4938387;28;20547;-64
2022/01/28 04:49:40;;;;;;;;;;;1.90;99.90;;;;;;4908821;28;19961;-66
2022/01/28 04:55:06;;;;;;;;;;;2.00;99.90;;;;;;4930456;28;19965;-66
2022/01/28 05:00:21;;;;;;;;;;;2.10;99.90;;;;;;4931433;28;20750;-71
2022/01/28 05:16:45;;;;;;;;;;;2.20;99.90;;;;;;4932303;28;19953;-67
2022/01/28 05:27:22;;;;;;;;;;;2.20;99.90;;;;;;4929398;28;20029;-70
2022/01/28 05:29:49;;;;;;;;;;;2.20;99.90;;;;;;4931492;28;19984;-67
2022/01/28 05:32:16;;;;;;;;;;;2.20;99.90;;;;;;4933094;28;19953;-67
2022/01/28 05:34:43;;;;;;;;;;;2.20;99.90;;;;;;4929753;28;19931;-66
2022/01/28 05:37:10;;;;;;;;;;;2.20;99.90;;;;;;4933246;28;20365;-67
2022/01/28 05:39:37;;;;;;;;;;;2.20;99.90;;;;;;4937880;28;19930;-66
2022/01/28 05:42:04;;;;;;;;;;;2.20;99.90;;;;;;4934781;28;20021;-67
2022/01/28 05:44:30;;;;;;;;;;;2.20;99.90;;;;;;4939529;28;20348;-68
2022/01/28 05:47:02;;;;;;;;;;;2.20;99.90;;;;;;4933207;28;19937;-66
2022/01/28 05:49:29;;;;;;;;;;;2.20;99.90;;;;;;4937677;28;19938;-68
2022/01/28 05:51:56;;;;;;;;;;;2.20;99.90;;;;;;4933627;28;20025;-71
2022/01/28 05:54:23;;;;;;;;;;;2.10;99.90;;;;;;4939447;28;19926;-68
2022/01/28 05:56:50;;;;;;;;;;;2.10;99.90;;;;;;4930320;28;20016;-65
2022/01/28 05:59:19;;;;;;;;;;;2.10;99.90;;;;;;4936126;28;19965;-69
2022/01/28 06:01:46;;;;;;;;;;;2.10;99.90;;;;;;4934252;28;20002;-64
2022/01/28 06:04:15;;;;;;;;;;;2.10;99.90;;;;;;4933180;28;19957;-68
2022/01/28 06:06:42;;;;;;;;;;;2.10;99.90;;;;;;4930683;28;19940;-67
2022/01/28 06:09:09;;;;;;;;;;;2.20;99.90;;;;;;4931656;28;20061;-67
2022/01/28 06:11:37;;;;;;;;;;;2.20;99.90;;;;;;4927864;28;19926;-68
2022/01/28 06:14:04;;;;;;;;;;;2.20;99.90;;;;;;4930493;28;19937;-67
2022/01/28 06:16:31;;;;;;;;;;;2.20;99.90;;;;;;4929677;28;20022;-69
2022/01/28 06:18:58;;;;;;;;;;;2.20;99.90;;;;;;4925149;28;20037;-66
2022/01/28 06:21:24;;;;;;;;;;;2.20;99.90;;;;;;4928381;28;20025;-70
2022/01/28 06:23:52;;;;;;;;;;;2.30;99.90;;;;;;4929612;28;20041;-73
2022/01/28 06:26:19;;;;;;;;;;;2.30;99.90;;;;;;4927178;28;19931;-67
2022/01/28 06:28:46;;;;;;;;;;;2.40;99.90;;;;;;4924161;28;19931;-69
2022/01/28 06:31:13;;;;;;;;;;;2.40;99.90;;;;;;4930592;28;20345;-65
2022/01/28 06:33:41;;;;;;;;;;;2.40;99.90;;;;;;4931827;28;20268;-67
2022/01/28 06:36:07;;;;;;;;;;;2.40;99.90;;;;;;4926829;28;19945;-66
2022/01/28 06:38:34;;;;;;;;;;;2.40;99.90;;;;;;4929170;28;20365;-66
2022/01/28 06:41:01;;;;;;;;;;;2.40;99.90;;;;;;4930781;28;19942;-71
2022/01/28 06:43:28;;;;;;;;;;;2.40;99.90;;;;;;4883586;28;20144;-64
2022/01/28 06:46:15;;;;;;;;;;;2.40;99.90;;;;;;2964388;28;10002001;-67
2022/01/28 06:48:42;;;;;;;;;;;2.40;99.90;;;;;;2890863;28;10001231;-66
2022/01/28 06:51:08;;;;;;;;;;;2.40;99.90;;;;;;4927405;28;19930;-71
2022/01/28 06:53:35;;;;;;;;;;;2.50;99.90;;;;;;4884879;28;19978;-73
2022/01/28 06:56:02;;;;;;;;;;;2.40;99.90;;;;;;4884324;28;19983;-73
2022/01/28 06:58:29;;;;;;;;;;;2.50;99.90;;;;;;4882804;28;19934;-72
2022/01/28 07:00:56;;;;;;;;;;;2.50;99.90;;;;;;4884320;28;19930;-70
2022/01/28 07:03:23;;;;;;;;;;;2.50;99.90;;;;;;4884645;28;19930;-69
2022/01/28 07:05:50;;;;;;;;;;;2.50;99.90;;;;;;4888631;28;19946;-70
2022/01/28 07:08:17;;;;;;;;;;;2.60;99.90;;;;;;4887113;28;19956;-66
2022/01/28 07:10:43;;;;;;;;;;;2.50;99.90;;;;;;4883931;28;20279;-66
2022/01/28 07:13:12;;;;;;;;;;;2.50;99.90;;;;;;4885937;28;19953;-70
2022/01/28 07:15:39;;;;;;;;;;;2.50;99.90;;;;;;4885564;28;20049;-72
2022/01/28 07:18:06;;;;;;;;;;;2.50;99.90;;;;;;4884267;28;20048;-70
2022/01/28 07:20:33;;;;;;;;;;;2.50;99.90;;;;;;4890978;28;20348;-69
2022/01/28 07:23:01;;;;;;;;;;;2.50;99.90;;;;;;4917521;28;19978;-70
2022/01/28 07:25:28;;;;;;;;;;;2.50;99.90;;;;;;4934458;28;20061;-69
2022/01/28 07:27:55;;;;;;;;;;;2.50;99.90;;;;;;4933468;28;20001;-71
2022/01/28 07:30:22;;;;;;;;;;;2.50;99.90;;;;;;4932527;28;19937;-69
2022/01/28 07:32:52;;;;;;;;;;;2.50;99.90;;;;;;3906851;28;10000606;-70
2022/01/28 07:35:19;;;;;;;;;;;2.50;99.90;;;;;;2039298;28;10002014;-64
2022/01/28 07:37:46;;;;;;;;;;;2.50;99.90;;;;;;4934818;28;20008;-67
2022/01/28 07:40:13;;;;;;;;;;;2.50;99.90;;;;;;4898549;28;19937;-71
2022/01/28 07:42:40;;;;;;;;;;;2.50;99.90;;;;;;4888784;28;19946;-73
2022/01/28 07:45:08;;;;;;;;;;;2.50;99.90;;;;;;4879508;28;19937;-70
2022/01/28 07:47:38;;;;;;;;;;;2.60;99.90;;;;;;4889364;28;20013;-73
2022/01/28 07:50:06;;;;;;;;;;;2.60;99.90;;;;;;4888748;28;20013;-73
2022/01/28 07:52:33;;;;;;;;;;;2.60;99.90;;;;;;4889359;28;20974;-68
2022/01/28 07:55:00;;;;;;;;;;;2.60;99.90;;;;;;4887685;28;19984;-69
2022/01/28 07:57:27;;;;;;;;;;;2.60;99.90;;;;;;4889070;28;20048;-64
2022/01/28 07:59:54;;;;;;;;;;;2.60;99.90;;;;;;4883442;28;19971;-68
2022/01/28 08:02:20;;;;;;;;;;;2.50;99.90;;;;;;4885194;28;20089;-63
2022/01/28 08:04:47;;;;;;;;;;;2.60;99.90;;;;;;4887945;28;19941;-71
2022/01/28 08:07:14;;;;;;;;;;;2.60;99.90;;;;;;4887906;28;19926;-72
2022/01/28 08:09:41;;;;;;;;;;;2.50;99.90;;;;;;4899446;28;19948;-67
2022/01/28 08:12:08;;;;;;;;;;;2.50;99.90;;;;;;4902037;28;20005;-71
2022/01/28 08:14:35;;;;;;;;;;;2.50;99.90;;;;;;4889934;28;19970;-71
2022/01/28 08:17:02;;;;;;;;;;;2.50;99.90;;;;;;4887935;28;19934;-72
2022/01/28 08:19:29;;;;;;;;;;;2.50;99.90;;;;;;4887334;28;21014;-73
2022/01/28 08:21:56;;;;;;;;;;;2.50;99.90;;;;;;4886257;28;20036;-69
2022/01/28 08:24:22;;;;;;;;;;;2.50;99.90;;;;;;4890293;28;19936;-67
2022/01/28 08:26:49;;;;;;;;;;;2.50;99.90;;;;;;4886187;28;20313;-71
2022/01/28 08:29:16;;;;;;;;;;;2.50;99.90;;;;;;4886782;28;19994;-72
2022/01/28 08:31:43;;;;;;;;;;;2.50;99.90;;;;;;4889558;28;19984;-66
2022/01/28 08:34:10;;;;;;;;;;;2.50;99.90;;;;;;4884690;28;19970;-73
2022/01/28 08:36:37;;;;;;;;;;;2.50;99.90;;;;;;4887462;28;20044;-72
2022/01/28 08:39:05;;;;;;;;;;;2.50;99.90;;;;;;4886421;28;19930;-73
2022/01/28 08:41:34;;;;;;;;;;;2.50;99.90;;;;;;4892897;28;19930;-68
2022/01/28 08:44:02;;;;;;;;;;;2.50;99.90;;;;;;4933063;28;19950;-66
2022/01/28 08:46:29;;;;;;;;;;;2.40;99.90;;;;;;4930836;28;20020;-67
2022/01/28 08:48:56;;;;;;;;;;;2.50;99.90;;;;;;4930658;28;19930;-70
2022/01/28 08:51:23;;;;;;;;;;;2.50;99.90;;;;;;4931316;28;19961;-67
2022/01/28 08:53:50;;;;;;;;;;;2.40;99.90;;;;;;4933281;28;19986;-70
2022/01/28 08:56:16;;;;;;;;;;;2.40;99.90;;;;;;4932259;28;20008;-66
2022/01/28 08:58:43;;;;;;;;;;;2.40;99.90;;;;;;4932954;28;21247;-67
2022/01/28 09:01:11;;;;;;;;;;;2.40;99.90;;;;;;4934232;28;20013;-67
2022/01/28 09:03:38;;;;;;;;;;;2.40;99.90;;;;;;4933047;28;20036;-71
2022/01/28 09:06:05;;;;;;;;;;;2.40;99.90;;;;;;4933083;28;19930;-66
2022/01/28 09:08:32;;;;;;;;;;;2.40;99.90;;;;;;4937198;28;21307;-64
2022/01/28 09:11:18;;;;;;;;;;;2.30;99.90;;;;;;4931945;28;19927;-66
2022/01/28 09:13:45;;;;;;;;;;;2.30;99.90;;;;;;4935335;28;20021;-68
2022/01/28 09:16:12;;;;;;;;;;;2.30;99.90;;;;;;4935964;28;20693;-66
2022/01/28 09:18:39;;;;;;;;;;;2.30;99.90;;;;;;4934612;28;19927;-75
2022/01/28 09:21:06;;;;;;;;;;;2.30;99.90;;;;;;4930362;28;19940;-74
2022/01/28 09:23:33;;;;;;;;;;;2.30;99.90;;;;;;4933860;28;20013;-67
2022/01/28 09:25:59;;;;;;;;;;;2.40;99.90;;;;;;4931245;28;20033;-68
2022/01/28 09:28:26;;;;;;;;;;;2.40;99.90;;;;;;4935729;28;19938;-67
2022/01/28 09:30:53;;;;;;;;;;;2.30;99.90;;;;;;4930240;28;20265;-71
2022/01/28 09:33:20;;;;;;;;;;;2.40;99.90;;;;;;4933052;28;19943;-67
2022/01/28 09:35:48;;;;;;;;;;;2.30;99.90;;;;;;4933921;28;20943;-67
2022/01/28 09:38:16;;;;;;;;;;;2.30;99.90;;;;;;4935463;28;19930;-65
2022/01/28 09:40:43;;;;;;;;;;;2.30;99.90;;;;;;4928558;28;19978;-71
2022/01/28 09:43:10;;;;;;;;;;;2.30;99.90;;;;;;4933073;28;19926;-73
2022/01/28 09:45:37;;;;;;;;;;;2.30;99.90;;;;;;4929090;28;19989;-73
2022/01/28 09:48:04;;;;;;;;;;;2.30;99.90;;;;;;4929031;28;20809;-67
2022/01/28 09:50:31;;;;;;;;;;;2.30;99.90;;;;;;4931606;28;20401;-71
2022/01/28 09:52:58;;;;;;;;;;;2.30;99.90;;;;;;4929367;28;19946;-68
2022/01/28 09:55:25;;;;;;;;;;;2.40;99.90;;;;;;4930879;28;20112;-67
2022/01/28 09:57:56;;;;;;;;;;;2.30;99.90;;;;;;4930953;28;19970;-70
2022/01/28 10:00:25;;;;;;;;;;;2.30;99.90;;;;;;4932060;28;20040;-64
2022/01/28 10:02:56;;;;;;;;;;;2.30;99.90;;;;;;4929451;28;19930;-66
2022/01/28 10:05:31;;;;;;;;;;;2.30;99.90;;;;;;4931761;28;20331;-71
2022/01/28 10:07:59;;;;;;;;;;;2.30;99.90;;;;;;4930552;28;20375;-73
2022/01/28 10:10:26;;;;;;;;;;;2.30;99.90;;;;;;4930190;28;19931;-67
2022/01/28 10:13:22;;;;;;;;;;;2.40;99.90;;;;;;4929991;28;19937;-68
2022/01/28 10:15:52;;;;;;;;;;;2.40;99.90;;;;;;4929509;28;21101;-67
2022/01/28 10:18:18;;;;;;;;;;;2.40;99.90;;;;;;4931267;28;19970;-67
2022/01/28 10:20:45;;;;;;;;;;;2.40;99.90;;;;;;4931489;28;19996;-65
2022/01/28 10:23:13;;;;;;;;;;;2.40;99.90;;;;;;4932393;28;19926;-69
2022/01/28 10:25:42;;;;;;;;;;;2.40;99.90;;;;;;4931257;28;20816;-64
2022/01/28 10:28:10;;;;;;;;;;;2.40;99.90;;;;;;4932838;28;19939;-73
2022/01/28 10:30:43;;;;;;;;;;;2.40;99.90;;;;;;4929184;28;19961;-67
2022/01/28 10:33:10;;;;;;;;;;;2.40;99.90;;;;;;4931951;28;19930;-69
2022/01/28 10:35:38;;;;;;;;;;;2.40;99.90;;;;;;4927710;28;20741;-68
2022/01/28 10:38:07;;;;;;;;;;;2.40;99.90;;;;;;4934943;28;19937;-69
2022/01/28 10:40:34;;;;;;;;;;;2.50;99.90;;;;;;4476300;28;10000827;-69
2022/01/28 10:43:01;;;;;;;;;;;2.50;99.90;;;;;;676964;28;10002003;-68
2022/01/28 10:45:31;;;;;;;;;;;2.50;99.90;;;;;;4931233;28;20021;-66
2022/01/28 10:47:59;;;;;;;;;;;2.50;99.90;;;;;;4915263;28;20533;-69
2022/01/28 10:50:31;;;;;;;;;;;2.50;99.90;;;;;;4887690;28;19930;-71
2022/01/28 10:53:07;;;;;;;;;;;2.50;99.90;;;;;;4885976;28;20484;-69
2022/01/28 10:55:35;;;;;;;;;;;2.50;99.90;;;;;;4885373;28;20037;-69
2022/01/28 10:58:04;;;;;;;;;;;2.50;99.90;;;;;;4886930;28;19931;-67
2022/01/28 11:00:36;;;;;;;;;;;2.50;99.90;;;;;;4883798;28;19930;-77
2022/01/28 11:03:04;;;;;;;;;;;2.50;99.90;;;;;;4881944;28;19934;-69
2022/01/28 11:05:34;;;;;;;;;;;2.50;99.90;;;;;;4887807;28;19978;-68
2022/01/28 11:08:02;;;;;;;;;;;2.50;99.90;;;;;;4884583;28;20369;-74
2022/01/28 11:10:29;;;;;;;;;;;2.50;99.90;;;;;;4884254;28;20348;-71
2022/01/28 11:13:00;;;;;;;;;;;2.60;99.90;;;;;;4881511;28;19938;-75
2022/01/28 11:15:27;;;;;;;;;;;2.60;99.90;;;;;;4887137;28;19942;-69
2022/01/28 11:17:54;;;;;;;;;;;2.60;99.90;;;;;;4886590;28;19930;-70
2022/01/28 11:20:22;;;;;;;;;;;2.60;99.90;;;;;;4894721;28;19931;-68
2022/01/28 11:22:52;;;;;;;;;;;2.60;99.90;;;;;;4884997;28;21076;-70
2022/01/28 11:25:28;;;;;;;;;;;2.60;99.90;;;;;;4890128;28;20056;-77
2022/01/28 11:27:55;;;;;;;;;;;2.60;99.90;;;;;;4887050;28;19974;-74
2022/01/28 11:30:28;;;;;;;;;;;2.60;99.90;;;;;;4823319;28;19930;-64
2022/01/28 11:33:13;;;;;;;;;;;2.60;99.90;;;;;;1180608;28;10021012;-70
2022/01/28 11:35:41;;;;;;;;;;;2.60;99.90;;;;;;4545842;28;10001082;-76
2022/01/28 11:38:40;;;;;;;;;;;2.60;99.90;;;;;;4886246;28;20010;-65
2022/01/28 11:41:07;;;;;;;;;;;2.60;99.90;;;;;;4921350;28;19997;-72
2022/01/28 11:43:42;;;;;;;;;;;2.60;99.90;;;;;;4928375;28;20122;-67
2022/01/28 11:46:10;;;;;;;;;;;2.70;99.90;;;;;;4930688;28;19977;-63
2022/01/28 11:48:54;;;;;;;;;;;2.60;99.90;;;;;;4930008;28;19934;-70
2022/01/28 11:51:22;;;;;;;;;;;2.60;99.90;;;;;;4930381;28;19952;-65
2022/01/28 11:53:56;;;;;;;;;;;2.60;99.90;;;;;;4929714;28;19941;-66
2022/01/28 11:56:24;;;;;;;;;;;2.60;99.90;;;;;;4930315;28;19938;-71
2022/01/28 11:58:51;;;;;;;;;;;2.50;99.90;;;;;;4930589;28;20028;-68
2022/01/28 12:01:38;;;;;;;;;;;2.50;99.90;;;;;;4932729;28;21395;-72
2022/01/28 12:04:23;;;;;;;;;;;2.50;99.90;;;;;;4936733;28;19933;-72
2022/01/28 12:06:54;;;;;;;;;;;2.50;99.90;;;;;;4938352;28;19930;-63
2022/01/28 12:09:23;;;;;;;;;;;2.50;99.90;;;;;;4937260;28;20410;-64
2022/01/28 12:11:50;;;;;;;;;;;2.50;99.90;;;;;;4939496;28;20009;-64
2022/01/28 12:14:18;;;;;;;;;;;2.50;99.90;;;;;;4937561;28;19926;-69
2022/01/28 12:16:46;;;;;;;;;;;2.60;99.90;;;;;;4842370;28;20487;-79
2022/01/28 12:19:23;;;;;;;;;;;2.60;99.90;;;;;;1568041;28;10022029;-72
2022/01/28 12:22:03;;;;;;;;;;;2.60;99.90;;;;;;4567568;28;10000599;-72
2022/01/28 12:24:31;;;;;;;;;;;2.60;99.90;;;;;;4908228;28;20467;-69
2022/01/28 12:26:59;;;;;;;;;;;2.60;99.90;;;;;;4907143;28;20032;-70
2022/01/28 12:29:30;;;;;;;;;;;2.60;99.90;;;;;;4902887;28;20073;-77
2022/01/28 12:32:01;;;;;;;;;;;2.60;99.90;;;;;;4905841;28;19930;-79
2022/01/28 12:34:28;;;;;;;;;;;2.60;99.90;;;;;;4906896;28;19937;-67
2022/01/28 12:36:57;;;;;;;;;;;2.60;99.90;;;;;;4906874;28;20074;-69
2022/01/28 12:39:43;;;;;;;;;;;2.60;99.90;;;;;;4906804;28;19930;-70
2022/01/28 12:42:22;;;;;;;;;;;2.50;99.90;;;;;;4909943;28;20020;-80
2022/01/28 12:44:51;;;;;;;;;;;2.50;99.90;;;;;;4905747;28;20935;-65
2022/01/28 12:47:18;;;;;;;;;;;2.50;99.90;;;;;;4929189;28;20654;-66
2022/01/28 12:49:46;;;;;;;;;;;2.50;99.90;;;;;;4938456;28;19961;-67
2022/01/28 12:52:13;;;;;;;;;;;2.50;99.90;;;;;;4940668;28;19934;-65
2022/01/28 12:54:43;;;;;;;;;;;2.60;99.90;;;;;;4937410;28;20013;-63
2022/01/28 12:57:11;;;;;;;;;;;2.50;99.90;;;;;;4934951;28;19927;-69
2022/01/28 12:59:38;;;;;;;;;;;2.50;99.90;;;;;;4936042;28;19923;-64
2022/01/28 13:02:06;;;;;;;;;;;2.50;99.90;;;;;;4935964;28;20252;-67
2022/01/28 13:09:54;;;;;;;;;;;2.50;99.90;;;;;;4937105;28;19977;-70
2022/01/28 13:12:39;;;;;;;;;;;2.50;99.90;;;;;;4939358;28;19931;-64
2022/01/28 13:15:11;;;;;;;;;;;2.50;99.90;;;;;;4934473;28;20384;-68
2022/01/28 13:17:39;;;;;;;;;;;2.50;99.90;;;;;;4936336;28;20400;-76
2022/01/28 13:20:10;;;;;;;;;;;2.50;99.90;;;;;;4934071;28;19937;-69
2022/01/28 13:22:38;;;;;;;;;;;2.50;99.90;;;;;;4935562;28;19934;-70
2022/01/28 13:25:22;;;;;;;;;;;2.50;99.90;;;;;;4938062;28;19940;-67
2022/01/28 13:27:53;;;;;;;;;;;2.40;99.90;;;;;;4937815;28;19922;-69
2022/01/28 13:30:20;;;;;;;;;;;2.50;99.90;;;;;;4938652;28;20022;-72
2022/01/28 13:32:49;;;;;;;;;;;2.50;99.90;;;;;;4936146;28;19970;-72
2022/01/28 13:35:17;;;;;;;;;;;2.50;99.90;;;;;;4940184;28;20435;-70
2022/01/28 13:37:45;;;;;;;;;;;2.40;99.90;;;;;;4938927;28;20684;-71
2022/01/28 13:40:12;;;;;;;;;;;2.40;99.90;;;;;;4939498;28;19936;-65
2022/01/28 13:43:15;;;;;;;;;;;2.40;99.90;;;;;;4936253;28;19981;-76
2022/01/28 13:45:55;;;;;;;;;;;2.40;99.90;;;;;;4884452;29;19934;-69
2022/01/28 13:48:32;;;;;;;;;;;2.40;99.90;;;;;;4927762;28;19931;-68
2022/01/28 13:51:09;;;;;;;;;;;2.40;99.90;;;;;;4936160;28;19942;-69
2022/01/28 13:54:15;;;;;;;;;;;2.30;99.90;;;;;;4965195;28;20992;-73
2022/01/28 13:56:34;;;;;;;;;;;2.30;99.90;;;;;;4939162;28;20024;-68
2022/01/28 13:59:01;;;;;;;;;;;2.30;99.90;;;;;;4935003;28;20560;-66
2022/01/28 14:01:28;;;;;;;;;;;2.40;99.90;;;;;;4936601;28;19985;-65
2022/01/28 14:03:57;;;;;;;;;;;2.30;99.90;;;;;;4931389;28;20365;-68
2022/01/28 14:06:23;;;;;;;;;;;2.30;99.90;;;;;;4930613;28;19985;-68
2022/01/28 14:09:14;;;;;;;;;;;2.30;99.90;;;;;;4936930;28;19961;-65
2022/01/28 14:11:44;;;;;;;;;;;2.30;99.90;;;;;;4935370;28;19937;-62
2022/01/28 14:14:33;;;;;;;;;;;2.30;99.90;;;;;;4936734;28;19954;-67
2022/01/28 14:17:09;;;;;;;;;;;2.30;99.90;;;;;;4935535;28;20012;-78
2022/01/28 14:19:36;;;;;;;;;;;2.30;99.90;;;;;;4834924;28;20229;-62
2022/01/28 14:22:23;;;;;;;;;;;2.30;99.90;;;;;;1002195;28;10002008;-80
2022/01/28 14:24:51;;;;;;;;;;;2.30;99.90;;;;;;4908389;28;19930;-82
2022/01/28 14:30:03;;;;;;;;;;;2.30;99.90;;;;;;4902197;28;19936;-65
2022/01/28 14:32:30;;;;;;;;;;;2.30;99.90;;;;;;4906888;28;19930;-64
2022/01/28 14:34:57;;;;;;;;;;;2.30;99.90;;;;;;4904888;28;20096;-74
2022/01/28 14:37:27;;;;;;;;;;;2.30;99.90;;;;;;4907392;28;20261;-73
2022/01/28 14:39:54;;;;;;;;;;;2.30;99.90;;;;;;4907258;28;20030;-83
2022/01/28 14:42:20;;;;;;;;;;;2.30;99.90;;;;;;4907488;28;20405;-72
2022/01/28 14:44:48;;;;;;;;;;;2.20;99.90;;;;;;4906413;28;19985;-83
2022/01/28 14:47:16;;;;;;;;;;;2.20;99.90;;;;;;4907579;28;19935;-65
2022/01/28 14:49:43;;;;;;;;;;;2.20;99.90;;;;;;4927354;28;19930;-63
2022/01/28 14:52:13;;;;;;;;;;;2.20;99.90;;;;;;4937595;28;20056;-64
2022/01/28 14:54:40;;;;;;;;;;;2.20;99.90;;;;;;4933835;28;19969;-62
2022/01/28 14:57:09;;;;;;;;;;;2.20;99.90;;;;;;4935225;28;20309;-68
2022/01/28 14:59:37;;;;;;;;;;;2.20;99.90;;;;;;4937977;28;19930;-62
2022/01/28 15:02:05;;;;;;;;;;;2.30;99.90;;;;;;4935227;28;20049;-66
2022/01/28 15:04:33;;;;;;;;;;;2.20;99.90;;;;;;4933508;28;19934;-66
2022/01/28 15:06:59;;;;;;;;;;;2.20;99.90;;;;;;4934394;28;20112;-67
2022/01/28 15:09:26;;;;;;;;;;;2.20;99.90;;;;;;4935036;28;20017;-71
2022/01/28 15:11:53;;;;;;;;;;;2.30;99.90;;;;;;4934801;28;19930;-65
2022/01/28 15:14:21;;;;;;;;;;;2.20;99.90;;;;;;4934871;28;19930;-65
2022/01/28 15:16:49;;;;;;;;;;;2.20;99.90;;;;;;4932861;28;19953;-64
2022/01/28 15:19:16;;;;;;;;;;;2.30;99.90;;;;;;4934944;28;20017;-63
2022/01/28 15:21:48;;;;;;;;;;;2.20;99.90;;;;;;4934024;28;20522;-69
2022/01/28 15:24:19;;;;;;;;;;;2.20;99.90;;;;;;4931515;28;20494;-71
2022/01/28 15:26:46;;;;;;;;;;;2.20;99.90;;;;;;4931480;28;19979;-76
2022/01/28 15:29:34;;;;;;;;;;;2.20;99.90;;;;;;4933901;28;20025;-67
2022/01/28 15:37:14;;;;;;;;;;;2.20;99.90;;;;;;4935095;28;20017;-66
2022/01/28 15:39:46;;;;;;;;;;;2.20;99.90;;;;;;4936918;28;20426;-71
2022/01/28 15:42:13;;;;;;;;;;;2.20;99.90;;;;;;4935146;28;19929;-65
2022/01/28 15:44:42;;;;;;;;;;;2.20;99.90;;;;;;4938857;28;21009;-68
2022/01/28 15:47:10;;;;;;;;;;;2.20;99.90;;;;;;4936324;28;20458;-64
2022/01/28 15:49:37;;;;;;;;;;;2.20;99.90;;;;;;4938634;28;20053;-71
2022/01/28 15:52:04;;;;;;;;;;;2.20;99.90;;;;;;4938326;28;20066;-69
2022/01/28 15:54:31;;;;;;;;;;;2.10;99.90;;;;;;4929924;28;19931;-68
2022/01/28 15:56:58;;;;;;;;;;;2.20;99.90;;;;;;4935321;28;20432;-70
2022/01/28 15:59:25;;;;;;;;;;;2.20;99.90;;;;;;4934521;28;20073;-65
2022/01/28 16:01:51;;;;;;;;;;;2.10;99.90;;;;;;4935745;28;20028;-69
2022/01/28 16:04:19;;;;;;;;;;;2.10;99.90;;;;;;4939247;28;19952;-67
2022/01/28 16:06:48;;;;;;;;;;;2.20;99.90;;;;;;4916016;28;21577;-73
2022/01/28 16:09:16;;;;;;;;;;;2.10;99.90;;;;;;4893656;28;19930;-67
2022/01/28 16:11:50;;;;;;;;;;;2.20;99.90;;;;;;4899462;28;20039;-69
2022/01/28 16:14:19;;;;;;;;;;;2.20;99.90;;;;;;4896481;28;20143;-68
2022/01/28 16:19:33;;;;;;;;;;;2.20;99.90;;;;;;4896576;28;19930;-72
2022/01/28 16:22:00;;;;;;;;;;;2.20;99.90;;;;;;4891410;28;19936;-66
2022/01/28 16:24:27;;;;;;;;;;;2.20;99.90;;;;;;4891486;28;20016;-65
2022/01/28 16:26:55;;;;;;;;;;;2.20;99.90;;;;;;4886221;28;19937;-68
2022/01/28 16:29:23;;;;;;;;;;;2.20;99.90;;;;;;4894690;28;20025;-81